Time;durP1;ratioP1;P1;durP2;ratioP2;P2;SDS_P1;SDS_P2;PMS_P1;PMS_P2;Temp;Humidity;BMP_temperature;BMP_pressure;BME280_temperature;BME280_humidity;BME280_pressure;Samples;Min_cycle;Max_cycle;Signal;HPM_P1;HPM_P2
2022/10/08 00:00:09;;;;;;;10.15;3.40;;;12.40;99.90;;;;;;5039567;28;20064;-69
2022/10/08 00:02:34;;;;;;;13.13;3.30;;;12.40;99.90;;;;;;5071513;28;20294;-69
2022/10/08 00:05:00;;;;;;;10.13;2.80;;;12.40;99.90;;;;;;5056221;28;20039;-70
2022/10/08 00:07:26;;;;;;;9.80;3.10;;;12.40;99.90;;;;;;5053611;28;20061;-70
2022/10/08 00:09:51;;;;;;;12.82;3.67;;;12.40;99.90;;;;;;5064910;28;20042;-70
2022/10/08 00:12:17;;;;;;;7.47;3.05;;;12.40;99.90;;;;;;5109769;28;20040;-70
2022/10/08 00:14:43;;;;;;;9.63;3.17;;;12.50;99.90;;;;;;5110279;28;20032;-69
2022/10/08 00:17:09;;;;;;;11.13;3.60;;;12.50;99.90;;;;;;5058265;28;20403;-70
2022/10/08 00:19:34;;;;;;;13.73;3.53;;;12.50;99.90;;;;;;5109814;28;20426;-70
2022/10/08 00:22:00;;;;;;;14.40;4.45;;;12.40;99.90;;;;;;5091409;28;20035;-69
2022/10/08 00:24:26;;;;;;;9.63;3.35;;;12.40;99.90;;;;;;5074804;28;20035;-69
2022/10/08 00:26:52;;;;;;;11.65;3.63;;;12.40;99.90;;;;;;5110223;28;20488;-69
2022/10/08 00:29:20;;;;;;;12.60;4.35;;;12.40;99.90;;;;;;5091912;28;20071;-69
2022/10/08 00:31:48;;;;;;;8.25;3.33;;;12.40;99.90;;;;;;5074744;28;20070;-69
2022/10/08 00:34:17;;;;;;;11.15;3.92;;;12.40;99.90;;;;;;5091865;28;20036;-69
2022/10/08 00:36:43;;;;;;;11.93;3.85;;;12.40;99.90;;;;;;5074804;28;20381;-71
2022/10/08 00:39:15;;;;;;;10.18;3.45;;;12.40;99.90;;;;;;5074638;28;20081;-70
2022/10/08 00:41:43;;;;;;;12.07;3.47;;;12.30;99.90;;;;;;5090253;28;20044;-70
2022/10/08 00:44:52;;;;;;;11.73;3.75;;;12.30;99.90;;;;;;5076933;28;20035;-70
2022/10/08 00:47:27;;;;;;;8.50;3.30;;;12.30;99.90;;;;;;5105249;28;20040;-70
2022/10/08 00:49:57;;;;;;;14.48;4.22;;;12.20;99.90;;;;;;5055533;28;20032;-70
2022/10/08 00:52:25;;;;;;;9.63;3.88;;;12.20;99.90;;;;;;5089942;28;20412;-70
2022/10/08 00:54:51;;;;;;;12.32;3.95;;;12.10;99.90;;;;;;5077707;28;20036;-70
2022/10/08 00:57:20;;;;;;;9.38;3.53;;;12.00;99.90;;;;;;5068525;28;20032;-69
2022/10/08 00:59:45;;;;;;;9.38;3.60;;;12.00;99.90;;;;;;5090121;28;20036;-70
2022/10/08 01:02:12;;;;;;;13.52;3.78;;;12.00;99.90;;;;;;5089978;28;20047;-70
2022/10/08 01:04:42;;;;;;;8.90;3.80;;;12.00;99.90;;;;;;5090115;28;20040;-70
2022/10/08 01:07:15;;;;;;;14.00;4.28;;;12.00;99.90;;;;;;5072113;28;20128;-70
2022/10/08 01:09:45;;;;;;;12.27;4.38;;;11.90;99.90;;;;;;5090131;28;20035;-70
2022/10/08 01:12:32;;;;;;;13.57;4.28;;;11.90;99.90;;;;;;5082178;28;20075;-70
2022/10/08 01:15:06;;;;;;;10.15;4.65;;;11.80;99.90;;;;;;5075858;28;20040;-71
2022/10/08 01:17:58;;;;;;;11.82;4.78;;;11.80;99.90;;;;;;5059914;28;20039;-70
2022/10/08 01:20:42;;;;;;;9.90;5.38;;;11.80;99.90;;;;;;5060053;28;20039;-70
2022/10/08 01:23:50;;;;;;;13.98;5.35;;;11.80;99.90;;;;;;5059776;28;20040;-70
2022/10/08 01:26:47;;;;;;;8.13;4.38;;;11.70;99.90;;;;;;5044442;28;20109;-69
2022/10/08 01:29:31;;;;;;;11.85;4.60;;;11.60;99.90;;;;;;5095180;28;20531;-70
2022/10/08 01:32:05;;;;;;;12.60;4.50;;;11.60;99.90;;;;;;5080797;28;20671;-70
2022/10/08 01:34:46;;;;;;;13.40;4.35;;;11.60;99.90;;;;;;5076781;28;20074;-69
2022/10/08 01:37:19;;;;;;;10.43;4.00;;;11.50;99.90;;;;;;5088098;28;20111;-70
2022/10/08 01:39:48;;;;;;;7.75;3.83;;;11.50;99.90;;;;;;5075985;28;20115;-71
2022/10/08 01:42:16;;;;;;;13.10;5.07;;;11.50;99.90;;;;;;5081932;28;20498;-70
2022/10/08 01:44:51;;;;;;;9.68;3.65;;;11.50;99.90;;;;;;5091895;28;20485;-71
2022/10/08 01:47:19;;;;;;;8.30;4.10;;;11.50;99.90;;;;;;5063330;28;20036;-70
2022/10/08 01:49:57;;;;;;;10.52;4.20;;;11.50;99.90;;;;;;5074852;28;20082;-71
2022/10/08 01:52:31;;;;;;;7.80;4.20;;;11.50;99.90;;;;;;5075683;28;20069;-71
2022/10/08 01:55:00;;;;;;;9.18;4.40;;;11.50;99.90;;;;;;5094764;28;20050;-71
2022/10/08 01:57:29;;;;;;;8.68;4.40;;;11.50;99.90;;;;;;5075589;28;20123;-70
2022/10/08 02:00:06;;;;;;;10.88;4.25;;;11.50;99.90;;;;;;5059006;28;20377;-70
2022/10/08 02:02:32;;;;;;;10.07;4.40;;;11.60;99.90;;;;;;5075529;28;20034;-70
2022/10/08 02:04:58;;;;;;;7.88;4.10;;;11.60;99.90;;;;;;5093488;28;20043;-70
2022/10/08 02:07:30;;;;;;;8.65;4.20;;;11.50;99.90;;;;;;5058942;28;20036;-70
2022/10/08 02:10:10;;;;;;;6.53;4.18;;;11.50;99.90;;;;;;5091178;28;20044;-70
2022/10/08 02:12:38;;;;;;;9.43;4.75;;;11.50;99.90;;;;;;5080797;28;20055;-70
2022/10/08 02:15:06;;;;;;;8.07;4.10;;;11.50;99.90;;;;;;5075060;28;20086;-70
2022/10/08 02:17:50;;;;;;;10.10;4.32;;;11.50;99.90;;;;;;5042033;28;20043;-71
2022/10/08 02:20:36;;;;;;;7.53;3.95;;;11.50;99.90;;;;;;5082514;28;20551;-70
2022/10/08 02:23:24;;;;;;;9.68;3.90;;;11.50;99.90;;;;;;5075104;28;20044;-70
2022/10/08 02:26:01;;;;;;;8.52;4.30;;;11.50;99.90;;;;;;5073744;28;20558;-70
2022/10/08 02:28:42;;;;;;;10.13;4.60;;;11.50;99.90;;;;;;5058063;28;20040;-70
2022/10/08 02:31:19;;;;;;;11.57;4.57;;;11.50;99.90;;;;;;5074806;28;20040;-69
2022/10/08 02:34:02;;;;;;;7.97;4.50;;;11.60;99.90;;;;;;5075279;28;20044;-70
2022/10/08 02:36:37;;;;;;;7.63;4.07;;;11.60;99.90;;;;;;5058516;28;20500;-70
2022/10/08 02:39:05;;;;;;;12.85;5.90;;;11.60;99.90;;;;;;5093363;28;20078;-70
2022/10/08 02:41:39;;;;;;;8.82;4.55;;;11.60;99.90;;;;;;5111867;28;20397;-70
2022/10/08 02:44:11;;;;;;;8.00;4.88;;;11.60;99.90;;;;;;5093939;28;20039;-70
2022/10/08 02:46:39;;;;;;;10.38;4.22;;;11.60;99.90;;;;;;5094005;28;20100;-70
2022/10/08 02:49:12;;;;;;;10.02;4.97;;;11.60;99.90;;;;;;5101896;28;20046;-70
2022/10/08 02:51:41;;;;;;;7.38;4.65;;;11.60;99.90;;;;;;5092943;28;20065;-69
2022/10/08 02:54:09;;;;;;;12.95;4.82;;;11.60;99.90;;;;;;5074273;28;20435;-70
2022/10/08 02:56:45;;;;;;;10.00;4.45;;;11.50;99.90;;;;;;5074786;28;20519;-70
2022/10/08 02:59:13;;;;;;;9.95;4.50;;;11.50;99.90;;;;;;5107331;28;20035;-70
2022/10/08 03:01:54;;;;;;;10.80;3.85;;;11.50;99.90;;;;;;5093758;28;20058;-70
2022/10/08 03:04:35;;;;;;;9.07;4.07;;;11.50;99.90;;;;;;5093769;28;20049;-70
2022/10/08 03:07:01;;;;;;;5.97;3.85;;;11.50;99.90;;;;;;5074242;28;20237;-70
2022/10/08 03:09:33;;;;;;;8.80;4.18;;;11.50;99.90;;;;;;5076821;28;20097;-70
2022/10/08 03:11:59;;;;;;;9.25;4.07;;;11.50;99.90;;;;;;5093557;28;20042;-70
2022/10/08 03:14:26;;;;;;;8.75;4.35;;;11.50;99.90;;;;;;5111611;28;20040;-69
2022/10/08 03:16:53;;;;;;;10.40;4.07;;;11.50;99.90;;;;;;5076570;28;20686;-70
2022/10/08 03:19:21;;;;;;;7.85;4.10;;;11.40;99.90;;;;;;5111085;28;20089;-70
2022/10/08 03:21:51;;;;;;;8.52;3.63;;;11.40;99.90;;;;;;5093501;28;20066;-70
2022/10/08 03:24:16;;;;;;;10.88;4.40;;;11.40;99.90;;;;;;5092804;28;20039;-70
2022/10/08 03:26:42;;;;;;;6.30;4.30;;;11.40;99.90;;;;;;5108650;28;20061;-70
2022/10/08 03:29:08;;;;;;;14.45;4.45;;;11.40;99.90;;;;;;5057239;28;20047;-71
2022/10/08 03:31:35;;;;;;;8.88;3.90;;;11.40;99.90;;;;;;5073910;28;20028;-70
2022/10/08 03:34:00;;;;;;;11.73;4.03;;;11.40;99.90;;;;;;5073753;28;20028;-70
2022/10/08 03:36:27;;;;;;;7.32;3.97;;;11.40;99.90;;;;;;5057140;28;20042;-70
2022/10/08 03:38:53;;;;;;;9.05;4.45;;;11.40;99.90;;;;;;5057160;28;20039;-71
2022/10/08 03:41:19;;;;;;;8.45;4.40;;;11.40;99.90;;;;;;5034926;28;20045;-70
2022/10/08 03:43:45;;;;;;;12.38;4.40;;;11.40;99.90;;;;;;5053470;28;20068;-70
2022/10/08 03:46:13;;;;;;;9.85;3.90;;;11.40;99.90;;;;;;5070091;28;20286;-70
2022/10/08 03:48:40;;;;;;;8.75;4.32;;;11.30;99.90;;;;;;5071123;28;20582;-70
2022/10/08 03:51:16;;;;;;;10.45;4.38;;;11.30;99.90;;;;;;5069699;28;20231;-70
2022/10/08 03:53:43;;;;;;;7.07;4.03;;;11.20;99.90;;;;;;5036804;28;20580;-70
2022/10/08 03:56:14;;;;;;;12.15;4.25;;;11.20;99.90;;;;;;5070991;28;20474;-70
2022/10/08 03:58:41;;;;;;;7.97;4.13;;;11.10;99.90;;;;;;5074249;28;20075;-70
2022/10/08 04:01:12;;;;;;;8.57;3.97;;;11.10;99.90;;;;;;5090285;28;20036;-70
2022/10/08 04:03:38;;;;;;;9.82;4.25;;;11.10;99.90;;;;;;5069609;28;20106;-70
2022/10/08 04:06:04;;;;;;;9.27;4.60;;;11.00;99.90;;;;;;5062586;28;20477;-70
2022/10/08 04:08:30;;;;;;;9.63;4.47;;;11.00;99.90;;;;;;5069390;28;20389;-70
2022/10/08 04:10:56;;;;;;;8.50;4.35;;;10.90;99.90;;;;;;5070839;28;20032;-70
2022/10/08 04:13:21;;;;;;;8.50;5.10;;;10.90;99.90;;;;;;5069250;28;20075;-70
2022/10/08 04:15:49;;;;;;;13.00;4.22;;;10.90;99.90;;;;;;5052986;28;20107;-70
2022/10/08 04:18:15;;;;;;;7.07;4.70;;;10.80;99.90;;;;;;5069321;28;20123;-70
2022/10/08 04:20:42;;;;;;;7.20;4.90;;;10.90;99.90;;;;;;5069336;28;20058;-70
2022/10/08 04:23:09;;;;;;;7.53;4.22;;;10.80;99.90;;;;;;5053074;28;20397;-70
2022/10/08 04:25:35;;;;;;;10.52;4.55;;;10.90;99.90;;;;;;5069732;28;20048;-70
2022/10/08 04:28:02;;;;;;;6.78;4.47;;;10.90;99.90;;;;;;5054989;28;20039;-70
2022/10/08 04:30:29;;;;;;;13.80;5.80;;;10.90;99.90;;;;;;5069773;28;20048;-70
2022/10/08 04:32:56;;;;;;;10.90;4.82;;;10.90;99.90;;;;;;5070914;28;20039;-69
2022/10/08 04:35:22;;;;;;;8.68;5.13;;;10.90;99.90;;;;;;5052574;28;20036;-70
2022/10/08 04:37:47;;;;;;;8.25;5.40;;;10.90;99.90;;;;;;5052967;28;20049;-70
2022/10/08 04:40:13;;;;;;;8.52;5.15;;;10.90;99.90;;;;;;5052530;28;20267;-69
2022/10/08 04:42:39;;;;;;;15.80;5.40;;;10.90;99.90;;;;;;5051452;28;20040;-70
2022/10/08 04:45:05;;;;;;;8.75;5.05;;;10.90;99.90;;;;;;5055600;28;20032;-70
2022/10/08 04:47:31;;;;;;;10.45;5.45;;;10.90;99.90;;;;;;5088216;28;20028;-70
2022/10/08 04:49:57;;;;;;;8.63;5.70;;;11.00;99.90;;;;;;5087880;28;20032;-70
2022/10/08 04:52:23;;;;;;;9.25;5.43;;;11.00;99.90;;;;;;5081848;28;20460;-70
2022/10/08 04:54:48;;;;;;;9.38;5.93;;;11.00;99.90;;;;;;5069394;28;20555;-70
2022/10/08 04:57:14;;;;;;;12.60;5.55;;;11.00;99.90;;;;;;5069887;28;20037;-70
2022/10/08 04:59:40;;;;;;;10.95;5.47;;;10.90;99.90;;;;;;5053355;28;20048;-69
2022/10/08 05:02:06;;;;;;;14.93;6.05;;;10.90;99.90;;;;;;5069365;28;20036;-70
2022/10/08 05:04:31;;;;;;;12.48;5.75;;;10.90;99.90;;;;;;5074589;28;20482;-70
2022/10/08 05:06:57;;;;;;;10.93;5.35;;;11.00;99.90;;;;;;5088225;28;20121;-70
2022/10/08 05:09:23;;;;;;;15.95;4.95;;;10.90;99.90;;;;;;5072114;28;20432;-70
2022/10/08 05:11:50;;;;;;;13.77;5.93;;;11.00;99.90;;;;;;5088756;28;20036;-68
2022/10/08 05:14:16;;;;;;;12.07;5.85;;;10.90;99.90;;;;;;5088450;28;20044;-69
2022/10/08 05:16:41;;;;;;;11.35;5.70;;;11.00;99.90;;;;;;5071723;28;20461;-68
2022/10/08 05:19:08;;;;;;;11.13;5.60;;;11.00;99.90;;;;;;5074798;28;20079;-69
2022/10/08 05:21:33;;;;;;;13.43;4.78;;;11.00;99.90;;;;;;5069062;28;20037;-68
2022/10/08 05:24:02;;;;;;;16.05;4.95;;;11.00;99.90;;;;;;5069180;28;20040;-69
2022/10/08 05:26:31;;;;;;;7.93;4.38;;;11.00;99.90;;;;;;5069533;28;20521;-69
2022/10/08 05:28:58;;;;;;;9.30;4.97;;;11.00;99.90;;;;;;5081562;28;20055;-72
2022/10/08 05:31:26;;;;;;;8.95;4.88;;;11.00;99.90;;;;;;5071453;28;20306;-73
2022/10/08 05:33:52;;;;;;;11.60;5.75;;;11.00;99.90;;;;;;5078353;28;20036;-73
2022/10/08 05:36:25;;;;;;;13.48;5.53;;;11.00;99.90;;;;;;5067461;28;20064;-72
2022/10/08 05:38:51;;;;;;;14.07;5.10;;;10.90;99.90;;;;;;5068823;28;19927;-73
2022/10/08 05:41:23;;;;;;;12.35;5.20;;;11.00;99.90;;;;;;5071843;28;20048;-74
2022/10/08 05:43:50;;;;;;;12.55;5.30;;;11.00;99.90;;;;;;5057733;28;20040;-73
2022/10/08 05:46:16;;;;;;;9.52;4.80;;;10.90;99.90;;;;;;5071996;28;20507;-73
2022/10/08 05:48:43;;;;;;;11.20;4.60;;;10.90;99.90;;;;;;5071376;28;20068;-72
2022/10/08 05:51:14;;;;;;;8.60;4.30;;;10.90;99.90;;;;;;5071831;28;20052;-72
2022/10/08 05:53:42;;;;;;;10.15;4.72;;;10.90;99.90;;;;;;5090657;28;20119;-73
2022/10/08 05:56:10;;;;;;;12.30;4.65;;;10.90;99.90;;;;;;5072252;28;20036;-74
2022/10/08 05:58:38;;;;;;;7.30;3.67;;;10.80;99.90;;;;;;5080297;28;20043;-73
2022/10/08 06:01:16;;;;;;;12.80;4.60;;;10.80;99.90;;;;;;5063819;28;20035;-73
2022/10/08 06:03:42;;;;;;;14.02;4.68;;;10.80;99.90;;;;;;5079545;28;20499;-72
2022/10/08 06:06:11;;;;;;;7.40;4.28;;;10.70;99.90;;;;;;5077878;28;20047;-73
2022/10/08 06:08:37;;;;;;;6.22;3.95;;;10.70;99.90;;;;;;5094744;28;20123;-72
2022/10/08 06:11:04;;;;;;;6.90;3.58;;;10.70;99.90;;;;;;5076037;28;20157;-72
2022/10/08 06:13:31;;;;;;;11.32;4.20;;;10.70;99.90;;;;;;5091650;28;20036;-72
2022/10/08 06:15:57;;;;;;;9.25;3.83;;;10.70;99.90;;;;;;5094683;28;20083;-72
2022/10/08 06:18:28;;;;;;;10.10;3.67;;;10.60;99.90;;;;;;5094930;28;20031;-73
2022/10/08 06:20:54;;;;;;;8.40;3.38;;;10.60;99.90;;;;;;5097098;28;20040;-72
2022/10/08 06:23:21;;;;;;;10.05;3.70;;;10.50;99.90;;;;;;5075980;28;20457;-73
2022/10/08 06:25:47;;;;;;;7.18;3.60;;;10.50;99.90;;;;;;5059246;28;20075;-70
2022/10/08 06:28:14;;;;;;;9.95;3.60;;;10.50;99.90;;;;;;5042169;28;20082;-71
2022/10/08 06:30:41;;;;;;;11.10;4.25;;;10.50;99.90;;;;;;5093780;28;20079;-72
2022/10/08 06:33:08;;;;;;;7.20;4.00;;;10.50;99.90;;;;;;5058831;28;20051;-72
2022/10/08 06:35:34;;;;;;;16.50;5.00;;;10.50;99.90;;;;;;5093948;28;20039;-72
2022/10/08 06:38:00;;;;;;;15.45;4.60;;;10.50;99.90;;;;;;5075291;28;20055;-71
2022/10/08 06:40:26;;;;;;;7.75;4.72;;;10.50;99.90;;;;;;5055247;28;20409;-72
2022/10/08 06:42:51;;;;;;;12.05;4.80;;;10.60;99.90;;;;;;5089434;28;20048;-72
2022/10/08 06:45:17;;;;;;;16.52;5.13;;;10.60;99.90;;;;;;5074699;28;20424;-72
2022/10/08 06:47:43;;;;;;;14.52;5.22;;;10.70;99.90;;;;;;5090818;28;20596;-71
2022/10/08 06:50:09;;;;;;;16.13;4.85;;;10.70;99.90;;;;;;5078550;28;20032;-72
2022/10/08 06:52:35;;;;;;;12.60;5.60;;;10.80;99.90;;;;;;5053335;28;20094;-72
2022/10/08 06:55:00;;;;;;;12.70;4.57;;;10.80;99.90;;;;;;5055549;28;20040;-73
2022/10/08 06:57:26;;;;;;;10.38;4.50;;;10.80;99.90;;;;;;5071815;28;20461;-72
2022/10/08 06:59:53;;;;;;;11.70;5.38;;;10.90;99.90;;;;;;5071950;28;20120;-71
2022/10/08 07:02:20;;;;;;;12.98;4.60;;;10.90;99.90;;;;;;5062326;28;20434;-72
2022/10/08 07:04:46;;;;;;;10.55;5.40;;;10.90;99.90;;;;;;5057861;28;20063;-72
2022/10/08 07:07:11;;;;;;;11.70;4.63;;;10.90;99.90;;;;;;5090448;28;20067;-72
2022/10/08 07:09:37;;;;;;;9.02;4.70;;;10.90;99.90;;;;;;5057687;28;20048;-72
2022/10/08 07:12:03;;;;;;;8.45;4.72;;;10.90;99.90;;;;;;5070849;28;20071;-72
2022/10/08 07:14:29;;;;;;;10.18;5.30;;;11.00;99.90;;;;;;5070916;28;20036;-72
2022/10/08 07:16:54;;;;;;;12.70;5.03;;;11.00;99.90;;;;;;5091150;28;20036;-72
2022/10/08 07:19:20;;;;;;;16.70;5.10;;;11.00;99.90;;;;;;5045168;28;20037;-72
2022/10/08 07:21:46;;;;;;;12.40;5.15;;;11.00;99.90;;;;;;5064181;28;20136;-72
2022/10/08 07:24:12;;;;;;;10.93;5.05;;;11.00;99.90;;;;;;5083231;28;20039;-72
2022/10/08 07:26:37;;;;;;;12.20;5.30;;;11.00;99.90;;;;;;5080483;28;20039;-72
2022/10/08 07:29:07;;;;;;;11.80;4.68;;;11.10;99.90;;;;;;5089965;28;20028;-73
2022/10/08 07:31:35;;;;;;;15.43;5.07;;;11.10;99.90;;;;;;5090177;28;20048;-74
2022/10/08 07:34:04;;;;;;;13.02;5.05;;;11.20;99.90;;;;;;5077167;28;20049;-74
2022/10/08 07:36:31;;;;;;;16.58;5.43;;;11.20;99.90;;;;;;5082798;28;20411;-75
2022/10/08 07:38:59;;;;;;;12.05;4.32;;;11.30;99.90;;;;;;5090586;28;20083;-74
2022/10/08 07:41:26;;;;;;;17.67;5.97;;;11.30;99.90;;;;;;5093350;28;20054;-74
2022/10/08 07:43:58;;;;;;;16.60;5.45;;;11.30;99.90;;;;;;5112208;28;20040;-74
2022/10/08 07:46:25;;;;;;;8.10;4.93;;;11.30;99.90;;;;;;5077383;28;20050;-74
2022/10/08 07:48:53;;;;;;;15.27;5.53;;;11.30;99.90;;;;;;5087063;28;20396;-73
2022/10/08 07:51:19;;;;;;;11.90;4.88;;;11.30;99.90;;;;;;5084682;28;20511;-74
2022/10/08 07:53:46;;;;;;;11.23;4.78;;;11.40;99.90;;;;;;5076516;28;20044;-74
2022/10/08 07:56:14;;;;;;;10.38;4.90;;;11.50;99.90;;;;;;5093461;28;20048;-74
2022/10/08 07:58:41;;;;;;;10.45;4.80;;;11.60;99.90;;;;;;5080778;28;20046;-74
2022/10/08 08:01:10;;;;;;;17.00;4.65;;;11.70;99.90;;;;;;5075381;28;20039;-75
2022/10/08 08:03:36;;;;;;;7.53;3.90;;;11.80;99.90;;;;;;5089238;28;20051;-74
2022/10/08 08:06:11;;;;;;;14.15;4.32;;;11.80;99.90;;;;;;5070682;28;20036;-73
2022/10/08 08:08:39;;;;;;;10.73;4.05;;;11.90;99.90;;;;;;5074359;28;20044;-72
2022/10/08 08:11:06;;;;;;;12.73;3.95;;;11.90;99.90;;;;;;5057099;28;20036;-72
2022/10/08 08:13:35;;;;;;;9.68;4.15;;;11.90;99.90;;;;;;5073427;28;20063;-72
2022/10/08 08:16:06;;;;;;;11.77;3.70;;;11.90;99.90;;;;;;5092123;28;20028;-71
2022/10/08 08:18:33;;;;;;;9.63;3.65;;;11.90;99.90;;;;;;5073111;28;20036;-69
2022/10/08 08:21:02;;;;;;;9.38;3.83;;;11.90;99.90;;;;;;5073365;28;20429;-71
2022/10/08 08:23:40;;;;;;;13.88;3.72;;;12.00;99.90;;;;;;5072795;28;20471;-71
2022/10/08 08:26:12;;;;;;;9.05;3.40;;;12.00;99.90;;;;;;5074832;28;20100;-71
2022/10/08 08:28:38;;;;;;;7.93;2.92;;;12.10;99.90;;;;;;5074893;28;20090;-70
2022/10/08 08:31:13;;;;;;;7.25;3.10;;;12.20;99.90;;;;;;5076810;28;20551;-70
2022/10/08 08:33:40;;;;;;;11.05;3.05;;;12.30;99.90;;;;;;5067095;22;20050;-71
2022/10/08 08:36:06;;;;;;;9.18;3.08;;;12.40;99.90;;;;;;5011805;28;20048;-70
2022/10/08 08:38:38;;;;;;;14.55;3.00;;;12.60;99.90;;;;;;4993329;28;20038;-71
2022/10/08 08:41:44;;;;;;;6.55;2.30;;;13.10;99.90;;;;;;5007264;28;20453;-71
2022/10/08 08:44:17;;;;;;;10.73;2.30;;;13.50;99.90;;;;;;5006684;28;20053;-71
2022/10/08 08:46:48;;;;;;;6.95;2.00;;;13.60;99.90;;;;;;4991468;28;20160;-70
2022/10/08 08:49:36;;;;;;;7.03;2.10;;;13.60;99.90;;;;;;5022858;28;20051;-71
2022/10/08 08:52:03;;;;;;;8.60;2.58;;;13.60;99.90;;;;;;5011739;28;20129;-72
2022/10/08 08:54:29;;;;;;;9.90;3.00;;;13.80;99.90;;;;;;5011170;28;20047;-71
2022/10/08 08:57:08;;;;;;;12.02;2.53;;;13.90;99.90;;;;;;4979433;28;20038;-72
2022/10/08 08:59:41;;;;;;;10.32;2.45;;;13.90;99.90;;;;;;5011682;28;20505;-72
2022/10/08 09:02:28;;;;;;;7.75;1.95;;;14.00;99.90;;;;;;4992937;28;20038;-71
2022/10/08 09:05:01;;;;;;;6.40;2.10;;;14.10;99.90;;;;;;5025119;28;20041;-72
2022/10/08 09:07:38;;;;;;;7.63;2.05;;;14.10;99.90;;;;;;5007189;28;20041;-72
2022/10/08 09:10:08;;;;;;;8.48;2.03;;;14.20;99.90;;;;;;5027163;28;20046;-72
2022/10/08 09:12:45;;;;;;;12.68;2.58;;;14.10;99.90;;;;;;4980438;28;20060;-72
2022/10/08 09:15:19;;;;;;;4.32;1.50;;;14.10;99.90;;;;;;5006847;28;20037;-72
2022/10/08 09:17:47;;;;;;;7.28;2.30;;;14.10;99.90;;;;;;4992807;28;20041;-72
2022/10/08 09:20:15;;;;;;;7.90;2.25;;;14.10;99.90;;;;;;5011188;28;20541;-71
2022/10/08 09:22:42;;;;;;;9.35;2.20;;;14.20;99.90;;;;;;5011406;28;20052;-72
2022/10/08 09:25:19;;;;;;;9.02;2.25;;;14.10;99.90;;;;;;5011815;28;20049;-73
2022/10/08 09:27:49;;;;;;;10.35;2.28;;;14.10;99.90;;;;;;4992294;28;20046;-73
2022/10/08 09:30:39;;;;;;;9.10;2.08;;;13.90;99.90;;;;;;5024769;28;20503;-73
2022/10/08 09:33:11;;;;;;;7.55;1.98;;;14.10;99.90;;;;;;4994151;28;20548;-72
2022/10/08 09:35:48;;;;;;;11.70;2.17;;;14.40;99.90;;;;;;5013757;28;20038;-72
2022/10/08 09:38:31;;;;;;;5.30;1.83;;;14.50;99.90;;;;;;5012928;28;20692;-72
2022/10/08 09:41:04;;;;;;;8.50;1.67;;;14.60;99.90;;;;;;4999092;28;20077;-72
2022/10/08 09:43:32;;;;;;;6.85;1.88;;;14.50;99.90;;;;;;5014799;28;20037;-73
2022/10/08 09:45:58;;;;;;;6.07;1.73;;;14.40;99.90;;;;;;5000649;28;20037;-72
2022/10/08 09:48:24;;;;;;;8.00;2.03;;;14.30;99.90;;;;;;5015599;28;20045;-73
2022/10/08 09:51:06;;;;;;;8.63;2.25;;;14.20;99.90;;;;;;5012771;28;20103;-72
2022/10/08 09:53:53;;;;;;;5.93;1.80;;;14.20;99.90;;;;;;4994627;28;20053;-73
2022/10/08 09:56:26;;;;;;;8.27;2.00;;;14.10;99.90;;;;;;5032665;28;20318;-73
2022/10/08 09:59:01;;;;;;;5.75;1.60;;;14.10;99.90;;;;;;5014924;28;20052;-73
2022/10/08 10:01:30;;;;;;;7.40;1.83;;;14.10;99.90;;;;;;5012028;28;20038;-73
2022/10/08 10:03:58;;;;;;;5.55;1.83;;;14.10;99.90;;;;;;5008442;28;20048;-72
2022/10/08 10:06:36;;;;;;;10.45;1.52;;;14.10;99.90;;;;;;5014395;28;20041;-73
2022/10/08 10:09:24;;;;;;;5.43;1.58;;;14.10;99.90;;;;;;5014392;28;20391;-72
2022/10/08 10:12:28;;;;;;;4.35;1.30;;;14.10;99.90;;;;;;5014623;28;20450;-73
2022/10/08 10:15:18;;;;;;;6.38;2.05;;;14.50;99.90;;;;;;4998234;28;20125;-72
2022/10/08 10:17:48;;;;;;;5.93;1.70;;;14.70;99.90;;;;;;5012333;28;20041;-69
2022/10/08 10:20:20;;;;;;;8.00;1.50;;;15.20;99.90;;;;;;5010122;28;20513;-69
2022/10/08 10:23:10;;;;;;;3.85;1.40;;;15.50;99.90;;;;;;5014091;28;20081;-69
2022/10/08 10:26:07;;;;;;;6.70;1.40;;;15.90;99.90;;;;;;5006174;28;20041;-69
2022/10/08 10:29:19;;;;;;;8.23;2.10;;;15.90;99.90;;;;;;5010899;28;20068;-69
2022/10/08 10:31:57;;;;;;;6.97;1.67;;;15.50;99.90;;;;;;4992476;28;20312;-69
2022/10/08 10:34:27;;;;;;;4.60;1.10;;;15.00;99.90;;;;;;5031287;28;20423;-69
2022/10/08 10:37:04;;;;;;;7.43;1.45;;;14.60;99.90;;;;;;5001074;28;20046;-69
2022/10/08 10:39:52;;;;;;;4.13;1.40;;;14.00;99.90;;;;;;4990106;28;20128;-69
2022/10/08 10:42:42;;;;;;;4.50;1.30;;;13.70;99.90;;;;;;5005139;28;20041;-70
2022/10/08 10:45:21;;;;;;;2.92;1.42;;;13.30;99.90;;;;;;5013503;28;20037;-69
2022/10/08 10:47:49;;;;;;;4.38;1.35;;;13.00;99.90;;;;;;4996152;28;20421;-69
2022/10/08 10:50:28;;;;;;;5.45;1.48;;;12.80;99.90;;;;;;4978715;28;20096;-69
2022/10/08 10:53:05;;;;;;;3.38;1.25;;;12.60;99.90;;;;;;4995170;28;20340;-70
2022/10/08 10:55:34;;;;;;;6.53;1.27;;;12.50;99.90;;;;;;5031564;28;20423;-72
2022/10/08 10:58:07;;;;;;;5.45;1.77;;;12.60;99.90;;;;;;4996947;28;20026;-72
2022/10/08 11:00:52;;;;;;;5.93;1.55;;;12.90;99.90;;;;;;5013268;28;20041;-72
2022/10/08 11:03:52;;;;;;;6.63;1.50;;;13.30;99.90;;;;;;5012993;28;20037;-72
2022/10/08 11:06:33;;;;;;;4.60;1.65;;;13.70;99.90;;;;;;5012912;28;20044;-72
2022/10/08 11:09:41;;;;;;;6.75;1.90;;;14.10;99.90;;;;;;5012932;28;20053;-72
2022/10/08 11:12:43;;;;;;;7.82;2.33;;;14.40;99.90;;;;;;4987151;28;20114;-71
2022/10/08 11:15:18;;;;;;;4.50;2.15;;;14.70;99.90;;;;;;5010864;28;20098;-71
2022/10/08 11:17:59;;;;;;;7.57;1.52;;;14.90;99.90;;;;;;5013235;28;20437;-71
2022/10/08 11:20:57;;;;;;;11.32;1.65;;;15.10;99.90;;;;;;5013516;28;20395;-71
2022/10/08 11:23:53;;;;;;;8.52;2.33;;;15.30;99.90;;;;;;5011877;28;20065;-70
2022/10/08 11:26:29;;;;;;;6.10;1.50;;;15.50;99.90;;;;;;5011887;28;20140;-71
2022/10/08 11:29:33;;;;;;;8.07;1.60;;;15.70;99.90;;;;;;4999384;28;20029;-71
2022/10/08 11:32:00;;;;;;;7.07;1.73;;;15.80;99.90;;;;;;5012542;28;20037;-70
2022/10/08 11:34:35;;;;;;;12.25;2.30;;;15.90;99.90;;;;;;5012376;28;20106;-70
2022/10/08 11:37:38;;;;;;;7.57;1.67;;;16.10;99.90;;;;;;5032250;28;20524;-70
2022/10/08 11:40:13;;;;;;;;;;;16.10;99.90;;;;;;5020001;28;20046;-70
2022/10/08 11:43:14;;;;;;;7.95;1.70;;;16.10;99.90;;;;;;5014190;28;19943;-71
2022/10/08 11:45:43;;;;;;;6.47;2.00;;;16.10;99.90;;;;;;5014636;28;20034;-71
2022/10/08 11:48:31;;;;;;;7.00;1.58;;;16.20;99.90;;;;;;5013543;28;20038;-71
2022/10/08 11:51:18;;;;;;;5.00;1.55;;;16.30;99.90;;;;;;5012262;28;20491;-71
2022/10/08 11:54:08;;;;;;;5.00;1.35;;;16.10;99.90;;;;;;5008154;28;20088;-71
2022/10/08 11:56:38;;;;;;;5.78;1.40;;;16.20;99.90;;;;;;5010480;28;20605;-71
2022/10/08 11:59:20;;;;;;;9.25;1.63;;;16.20;99.90;;;;;;4976970;28;20046;-72
2022/10/08 12:01:55;;;;;;;5.05;1.50;;;16.30;99.90;;;;;;5027242;28;20119;-72
2022/10/08 12:04:31;;;;;;;4.82;1.50;;;16.30;99.90;;;;;;5029842;28;20033;-71
2022/10/08 12:07:16;;;;;;;5.97;1.30;;;16.30;99.90;;;;;;5012200;28;20453;-72
2022/10/08 12:10:06;;;;;;;4.07;1.27;;;16.40;99.90;;;;;;4995532;28;20076;-71
2022/10/08 12:13:00;;;;;;;3.70;1.70;;;16.40;99.90;;;;;;4995696;28;20037;-71
2022/10/08 12:15:26;;;;;;;6.65;1.40;;;16.30;99.90;;;;;;5029888;28;20033;-71
2022/10/08 12:17:55;;;;;;;8.25;1.98;;;16.40;99.90;;;;;;5011789;28;20136;-72
2022/10/08 12:20:26;;;;;;;4.63;1.60;;;16.40;99.90;;;;;;5029354;28;20454;-71
2022/10/08 12:22:59;;;;;;;7.95;2.72;;;16.40;99.90;;;;;;5012005;28;20048;-71
2022/10/08 12:25:35;;;;;;;;;;;16.50;99.90;;;;;;5012261;28;20411;-71
2022/10/08 12:28:19;;;;;;;5.30;1.50;;;16.50;99.90;;;;;;4978236;28;20306;-71
2022/10/08 12:30:47;;;;;;;6.95;1.98;;;16.70;99.90;;;;;;5010764;28;20379;-70
2022/10/08 12:33:14;;;;;;;3.15;1.30;;;16.70;99.90;;;;;;5011257;28;20080;-71
2022/10/08 12:36:06;;;;;;;4.57;1.10;;;16.60;99.00;;;;;;5021564;28;20046;-71
2022/10/08 12:38:58;;;;;;;4.53;1.50;;;16.40;95.50;;;;;;5011732;28;20402;-71
2022/10/08 12:41:27;;;;;;;;;;;16.40;97.10;;;;;;4981788;28;20037;-71
2022/10/08 12:43:59;;;;;;;3.08;1.48;;;16.50;97.00;;;;;;5029058;28;19917;-71
2022/10/08 12:46:53;;;;;;;4.30;1.50;;;16.50;97.00;;;;;;5009242;28;20033;-71
2022/10/08 12:49:41;;;;;;;6.25;1.70;;;16.40;96.50;;;;;;5023651;28;20185;-72
2022/10/08 12:52:10;;;;;;;3.45;1.67;;;16.40;96.70;;;;;;4995047;28;20045;-71
2022/10/08 12:54:39;;;;;;;3.90;1.30;;;16.50;97.90;;;;;;5011380;28;20049;-71
2022/10/08 12:57:11;;;;;;;5.80;1.85;;;16.50;97.70;;;;;;5011378;28;20420;-71
2022/10/08 12:59:40;;;;;;;5.50;1.73;;;16.60;97.10;;;;;;5009375;28;20392;-71
2022/10/08 13:02:25;;;;;;;4.47;1.42;;;16.60;97.70;;;;;;5011656;28;20485;-71
2022/10/08 13:04:50;;;;;;;4.38;1.40;;;16.60;97.10;;;;;;5005214;28;20042;-71
2022/10/08 13:07:27;;;;;;;4.18;1.48;;;16.50;96.00;;;;;;4995579;28;20552;-71
2022/10/08 13:09:55;;;;;;;7.00;1.42;;;16.50;96.10;;;;;;5012864;28;20045;-71